KSVN/SVN METAR and TAF weather

Enter ICAO airport designator
Station Type Date Time Source
KSVN METAR 2019/06/17 11:56 UTC NOAA

KSVN 171156Z AUTO 00000KT 10SM CLR 25/24 A3004 RMK AO2 SLP175 T02520241 10252 20227 52009 $


Station Type Date Time Source
KSVN Decoded METAR 2019/06/17 11:56 UTC NOAA

Hunter U. S. Army Airfield , GA, United States (KSVN) 32-01N 081-09W
Jun 17, 2019 - 07:56 AM EDT / 2019.06.17 1156 UTC
Wind: Calm:0
Visibility: 10 mile(s):0
Sky conditions: clear
Temperature: 77.4 F (25.2 C)
Dew Point: 75.4 F (24.1 C)
Relative Humidity: 93%
Pressure (altimeter): 30.04 in. Hg (1017 hPa)
Pressure tendency: 0.03 inches (0.9 hPa) higher than three hours ago
ob: KSVN 171156Z AUTO 00000KT 10SM CLR 25/24 A3004 RMK AO2 SLP175 T02520241 10252 20227 52009
cycle: 12

Station Type Date Time Source
KSVN TAF 2019/06/17 12:54 UTC NOAA

TAF TAF KSVN 171200Z 1712/1818 18006KT 8000 BR SCT015 QNH3000INS
BECMG 1713/1714 16009KT 9999 NSW SCT035 QNH3000INS
BECMG 1806/1807 19009KT 9999 BKN020 QNH3004INS
BECMG 1813/1814 18009KT 9999 BKN040 QNH2997INS TX32/1720Z TN22/1810Z

Example: see airport list